地図

経路データ

SID SEASON NUMBER BASIN SUBBASIN NAME ISO_TIME NATURE LAT LON WMO_WIND WMO_PRES WMO_AGENCY TRACK_TYPE DIST2LAND LANDFALL IFLAG USA_AGENCY USA_ATCF_ID USA_LAT USA_LON USA_RECORD USA_STATUS USA_WIND USA_PRES USA_SSHS USA_R34_NE USA_R34_SE USA_R34_SW USA_R34_NW USA_R50_NE USA_R50_SE USA_R50_SW USA_R50_NW USA_R64_NE USA_R64_SE USA_R64_SW USA_R64_NW USA_POCI USA_ROCI USA_RMW USA_EYE TOKYO_LAT TOKYO_LON TOKYO_GRADE TOKYO_WIND TOKYO_PRES TOKYO_R50_DIR TOKYO_R50_LONG TOKYO_R50_SHORT TOKYO_R30_DIR TOKYO_R30_LONG TOKYO_R30_SHORT TOKYO_LAND CMA_LAT CMA_LON CMA_CAT CMA_WIND CMA_PRES HKO_LAT HKO_LON HKO_CAT HKO_WIND HKO_PRES NEWDELHI_LAT NEWDELHI_LON NEWDELHI_GRADE NEWDELHI_WIND NEWDELHI_PRES NEWDELHI_CI NEWDELHI_DP NEWDELHI_POCI REUNION_LAT REUNION_LON REUNION_TYPE REUNION_WIND REUNION_PRES REUNION_TNUM REUNION_CI REUNION_RMW REUNION_R34_NE REUNION_R34_SE REUNION_R34_SW REUNION_R34_NW REUNION_R50_NE REUNION_R50_SE REUNION_R50_SW REUNION_R50_NW REUNION_R64_NE REUNION_R64_SE REUNION_R64_SW REUNION_R64_NW BOM_LAT BOM_LON BOM_TYPE BOM_WIND BOM_PRES BOM_TNUM BOM_CI BOM_RMW BOM_R34_NE BOM_R34_SE BOM_R34_SW BOM_R34_NW BOM_R50_NE BOM_R50_SE BOM_R50_SW BOM_R50_NW BOM_R64_NE BOM_R64_SE BOM_R64_SW BOM_R64_NW BOM_ROCI BOM_POCI BOM_EYE BOM_POS_METHOD BOM_PRES_METHOD NADI_LAT NADI_LON NADI_CAT NADI_WIND NADI_PRES WELLINGTON_LAT WELLINGTON_LON WELLINGTON_WIND WELLINGTON_PRES DS824_LAT DS824_LON DS824_STAGE DS824_WIND DS824_PRES TD9636_LAT TD9636_LON TD9636_STAGE TD9636_WIND TD9636_PRES TD9635_LAT TD9635_LON TD9635_WIND TD9635_PRES TD9635_ROCI NEUMANN_LAT NEUMANN_LON NEUMANN_CLASS NEUMANN_WIND NEUMANN_PRES MLC_LAT MLC_LON MLC_CLASS MLC_WIND MLC_PRES USA_GUST BOM_GUST BOM_GUST_PER REUNION_GUST REUNION_GUST_PER USA_SEAHGT USA_SEARAD_NE USA_SEARAD_SE USA_SEARAD_SW USA_SEARAD_NW STORM_SPEED STORM_DIR
1929055S14153 1929 20 SP EA NOT_NAMED 1929-02-23 23:00:00 NR -14.3500 152.950 bom main 483 482 ______O___O___ -1 -14.4000 152.900 -14.3000 153.000 7 12 264
1929055S14153 1929 20 SP EA NOT_NAMED 1929-02-24 00:00:00 NR -14.3716 152.737 main 477 451 ______P___P___ -1 -14.3953 152.698 -14.3478 152.776 7 12 264
1929055S14153 1929 20 SP EA NOT_NAMED 1929-02-24 03:00:00 NR -14.4360 152.096 main 451 441 ______P___P___ -1 -14.3843 152.090 -14.4878 152.103 7 13 264
1929055S14153 1929 20 SP EA NOT_NAMED 1929-02-24 06:00:00 NR -14.5022 151.453 main 441 430 ______P___P___ -1 -14.3861 151.477 -14.6184 151.428 7 13 264
1929055S14153 1929 20 SP EA NOT_NAMED 1929-02-24 09:00:00 NR -14.5727 150.803 main 438 436 ______P___P___ -1 -14.4114 150.854 -14.7340 150.752 7 13 263
1929055S14153 1929 20 SP EA NOT_NAMED 1929-02-24 11:00:00 NR -14.6233 150.365 main 436 436 ______P___O___ -1 -14.4465 150.431 -14.8000 150.300 7 13 265
1929055S14153 1929 20 SP EA NOT_NAMED 1929-02-24 12:00:00 TS -14.6333 150.151 main 436 436 ______P__OP___ -1 -14.4708 150.216 -14.5000 150.200 TC -14.8292 150.074 7 12 266
1929055S14153 1929 20 SP EA NOT_NAMED 1929-02-24 13:00:00 TS -14.6527 149.939 bom main 449 445 ______O__PP___ -1 -14.5000 150.000 -14.5513 149.999 TC -14.8561 149.848 7 12 262
1929055S14153 1929 20 SP EA NOT_NAMED 1929-02-24 15:00:00 TS -14.7159 149.513 main 445 380 ______P__PP___ -1 -14.5737 149.562 -14.6534 149.597 TC -14.9049 149.402 7 12 260
1929055S14153 1929 20 SP EA NOT_NAMED 1929-02-24 18:00:00 TS -14.8308 148.886 main 380 313 ______P__PP___ -1 -14.7153 148.907 -14.8048 148.994 TC -14.9724 148.756 7 12 258
1929055S14153 1929 20 SP EA NOT_NAMED 1929-02-24 21:00:00 TS -14.9599 148.279 main 313 270 ______P__PP___ -1 -14.8819 148.283 -14.9538 148.395 TC -15.0439 148.160 7 12 257
1929055S14153 1929 20 SP EA NOT_NAMED 1929-02-24 23:00:00 TS -15.0505 147.899 985 bom main 269 247 ______O__PO___ -1 -15.0000 147.900 985 4 -15.0516 147.998 TC -15.1000 147.800 7 11 256
1929055S14153 1929 20 SP EA NOT_NAMED 1929-02-25 00:00:00 TS -15.0912 147.720 main 247 193 ______P__OP___ -1 -15.0475 147.732 -15.1000 147.800 TC 55 985 -15.1261 147.629 7 10 256
1929055S14153 1929 20 SP EA NOT_NAMED 1929-02-25 03:00:00 TS -15.2153 147.221 main 193 150 ______P__PP___ -1 -15.1895 147.286 -15.2442 147.215 TC -15.2121 147.163 7 10 254
1929055S14153 1929 20 SP EA NOT_NAMED 1929-02-25 06:00:00 TS -15.3504 146.775 main 150 109 ______P__PP___ -1 -15.3366 146.909 -15.3925 146.657 TC -15.3220 146.759 7 9 250
1929055S14153 1929 20 SP EA NOT_NAMED 1929-02-25 09:00:00 TS -15.5066 146.377 main 109 91 ______P__PP___ -1 -15.4962 146.578 -15.5525 146.145 TC -15.4712 146.409 7 8 246
1929055S14153 1929 20 SP EA NOT_NAMED 1929-02-25 11:00:00 TS -15.6275 146.138 main 82 68 ______P__PO___ -1 -15.6129 146.373 -15.6695 145.840 TC -15.6000 146.200 7 8 242
1929055S14153 1929 20 SP EA NOT_NAMED 1929-02-25 12:00:00 TS -15.6941 146.018 main 68 30 ______P__PP___ -1 -15.6752 146.272 -15.7319 145.701 TC -15.6752 146.080 7 8 236
1929055S14153 1929 20 SP EA NOT_NAMED 1929-02-25 15:00:00 TS -15.9194 145.685 main 30 0 ______P__PP___ -1 -15.8806 145.967 -15.9384 145.344 TC -15.9391 145.744 7 8 231
1929055S14153 1929 20 SP EA NOT_NAMED 1929-02-25 18:00:00 TS -16.1816 145.401 main 0 0 ______P__PP___ -1 -16.1192 145.641 -16.1800 145.094 TC -16.2456 145.466 7 8 223
1929055S14153 1929 20 SP EA NOT_NAMED 1929-02-25 20:00:00 TS -16.3763 145.241 bom main 0 0 ______O__PP___ -1 -16.3000 145.400 -16.3645 144.998 TC -16.4643 145.326 7 7 218
1929055S14153 1929 20 SP EA NOT_NAMED 1929-02-25 21:00:00 TS -16.4742 145.164 main 0 0 ______P__PP___ -1 -16.3822 145.247 -16.4646 144.973 TC -16.5759 145.271 7 7 209
1929055S14153 1929 20 SP EA NOT_NAMED 1929-02-25 23:00:00 TS -16.6940 145.058 bom main 0 0 ______O__PO___ -1 -16.6000 145.000 -16.6821 144.973 TC -16.8000 145.200 7 7 200
1929055S14153 1929 20 SP EA NOT_NAMED 1929-02-26 00:00:00 TS -16.8207 145.036 main 0 0 ______P__OP___ -1 -16.7560 144.928 -16.8000 145.000 TC -16.9061 145.179 7 9 175
1929055S14153 1929 20 SP EA NOT_NAMED 1929-02-26 03:00:00 TS -17.2716 145.119 main 0 0 ______P__PP___ -1 -17.3722 144.932 -17.2071 145.220 TC -17.2305 145.190 7 10 167
1929055S14153 1929 20 SP EA NOT_NAMED 1929-02-26 04:00:00 TS -17.4339 145.188 bom main 0 0 ______O__PP___ -1 -17.6000 145.000 -17.3549 145.330 TC -17.3400 145.215 7 11 155
1929055S14153 1929 20 SP EA NOT_NAMED 1929-02-26 06:00:00 TS -17.7632 145.366 main 0 0 ______P__PP___ -1 -18.0534 145.177 -17.6663 145.597 TC -17.5594 145.293 7 12 147
1929055S14153 1929 20 SP EA NOT_NAMED 1929-02-26 09:00:00 TS -18.2771 145.755 main 0 0 ______P__PP___ -1 -18.7632 145.651 -18.1665 146.102 TC -17.8863 145.462 7 13 142
1929055S14153 1929 20 SP EA NOT_NAMED 1929-02-26 11:00:00 TS -18.6191 146.077 main 0 0 ______P__PO___ -1 -19.2220 146.078 -18.5173 146.497 TC -18.1000 145.600 7 14 137
1929055S14153 1929 20 SP EA NOT_NAMED 1929-02-26 12:00:00 TS -18.7869 146.248 main 0 0 ______P__PP___ -1 -19.4383 146.316 -18.6967 146.709 TC -18.2070 145.658 7 14 134
1929055S14153 1929 20 SP EA NOT_NAMED 1929-02-26 14:00:00 TS -19.1102 146.614 main 10 0 ______P__PP___ -1 -19.8302 146.830 -19.0613 147.157 TC -18.4193 145.791 7 14 132
1929055S14153 1929 20 SP EA NOT_NAMED 1929-02-26 15:00:00 TS -19.2632 146.806 bom main 0 0 ______O__PP___ -1 -20.0000 147.100 -19.2457 147.391 TC -18.5241 145.864 7 14 128
1929055S14153 1929 20 SP EA NOT_NAMED 1929-02-26 18:00:00 TS -19.6924 147.401 main 0 0 ______P__PP___ -1 -20.4266 147.913 -19.8029 148.119 TC -18.8304 146.112 7 14 125
1929055S14153 1929 20 SP EA NOT_NAMED 1929-02-26 21:00:00 TS -20.0627 148.032 bom main 0 0 ______O__PP___ -1 -20.7000 148.800 -20.3576 148.865 TC -19.1196 146.395 7 11 121
1929055S14153 1929 20 SP EA NOT_NAMED 1929-02-26 23:00:00 TS -20.1776 148.272 bom main 0 0 ______O__PO___ -1 -20.8000 149.400 -20.7212 149.358 TC -19.3000 146.600 7 3 120
1929055S14153 1929 20 SP EA NOT_NAMED 1929-02-27 00:00:00 TS -20.1359 148.169 main 0 0 ______P__OP___ -1 -20.8527 149.685 -20.9000 149.600 TC -19.3875 146.703 7 2 269
1929055S14153 1929 20 SP EA NOT_NAMED 1929-02-27 03:00:00 TS -20.1800 148.109 main 0 0 ______P___P___ -1 -21.0255 150.467 TC -19.6346 147.035 7 8 291
1929055S14153 1929 20 SP EA NOT_NAMED 1929-02-27 06:00:00 NR -19.8608 147.390 main 0 0 ______P___P___ -1 -21.2205 151.145 TC -19.8608 147.390 7 4 288
1929055S14153 1929 20 SP EA NOT_NAMED 1929-02-27 09:00:00 NR -20.0693 147.756 bom main 0 0 ______P___P___ -1 -21.4376 151.729 TC -20.0693 147.756 7 8 121
1929055S14153 1929 20 SP EA NOT_NAMED 1929-02-27 11:00:00 NR -20.2000 148.000 main 0 0 ______P___O___ -1 -21.5943 152.070 TC -20.2000 148.000 7 8 120
1929055S14153 1929 20 SP EA NOT_NAMED 1929-02-27 12:00:00 NR -20.2549 148.105 main 0 0 ______P___P___ -1 -21.6762 152.228 TC -20.2549 148.105 7 7 118
1929055S14153 1929 20 SP EA NOT_NAMED 1929-02-27 15:00:00 NR -20.4046 148.414 main 0 0 ______P___P___ -1 -21.9356 152.650 TC -20.4046 148.414 7 7 117
1929055S14153 1929 20 SP EA NOT_NAMED 1929-02-27 18:00:00 NR -20.5564 148.739 main 10 10 ______P___P___ -1 -22.2149 153.006 TC -20.5564 148.739 7 7 117
1929055S14153 1929 20 SP EA NOT_NAMED 1929-02-27 21:00:00 NR -20.7420 149.111 main 30 24 ______P___P___ -1 -22.5132 153.303 TC -20.7420 149.111 7 8 119
1929055S14153 1929 20 SP EA NOT_NAMED 1929-02-27 23:00:00 NR -20.9000 149.400 bom main 30 30 ______P___O___ -1 -22.7220 153.473 TC -20.9000 149.400 7 10 120
1929055S14153 1929 20 SP EA NOT_NAMED 1929-02-27 23:30:00 NR -20.9441 149.485 main 38 33 ______P___P___ -1 -22.7754 153.513 TC -20.9441 149.485 7 11 119
1929055S14153 1929 20 SP EA NOT_NAMED 1929-02-28 00:00:00 NR -20.9899 149.574 main 42 42 ______P___P___ -1 -22.8293 153.551 TC -20.9899 149.574 7 12 119
1929055S14153 1929 20 SP EA NOT_NAMED 1929-02-28 02:00:00 NR -21.1901 149.952 main 75 75 ______P___P___ -1 -23.0492 153.694 TC -21.1901 149.952 7 12 120
1929055S14153 1929 20 SP EA NOT_NAMED 1929-02-28 03:00:00 NR -21.3001 150.153 main 89 88 ______P___P___ -1 -23.1619 153.760 TC -21.3001 150.153 7 14 122
1929055S14153 1929 20 SP EA NOT_NAMED 1929-02-28 06:00:00 NR -21.6678 150.781 main 78 68 ______P___P___ -1 -23.5097 153.937 TC -21.6678 150.781 7 14 124
1929055S14153 1929 20 SP EA NOT_NAMED 1929-02-28 09:00:00 NR -22.0898 151.408 main 76 76 ______P___P___ -1 -23.8714 154.092 TC -22.0898 151.408 7 14 128
1929055S14153 1929 20 SP EA NOT_NAMED 1929-02-28 11:00:00 NR -22.4000 151.800 main 103 103 ______P___O___ -1 -24.1196 154.188 TC -22.4000 151.800 7 15 133
1929055S14153 1929 20 SP EA NOT_NAMED 1929-02-28 12:00:00 NR -22.5806 151.984 main 123 120 ______P___P___ -1 -24.2456 154.235 TC -22.5806 151.984 7 23 139
1929055S14153 1929 20 SP EA NOT_NAMED 1929-02-28 15:00:00 NR -23.5836 152.895 main 121 59 ______P___P___ -1 -24.6308 154.374 TC -23.1700 152.510 7 22 141
1929055S14153 1929 20 SP EA NOT_NAMED 1929-02-28 18:00:00 NR -24.3021 153.497 main 59 45 ______P___P___ -1 -25.0254 154.519 TC -23.7722 152.983 7 16 143
1929055S14153 1929 20 SP EA NOT_NAMED 1929-02-28 21:00:00 NR -24.8379 153.933 main 55 55 ______P___P___ -1 -25.4280 154.680 TC -24.3120 153.383 7 13 143
1929055S14153 1929 20 SP EA NOT_NAMED 1929-02-28 23:00:00 NR -25.1500 154.200 bom main 81 83 ______O___O___ -1 -25.7000 154.800 TC -24.6000 153.600 7 11 142
1929055S14153 1929 20 SP EA NOT_NAMED 1929-02-28 23:30:00 NR -25.2082 154.254 main 93 93 ______P___P___ -1 -25.7684 154.832 TC -24.6514 153.648 7 9 139
1929055S14153 1929 20 SP EA NOT_NAMED 1929-03-01 00:00:00 NR -25.2654 154.308 main 96 96 ______P___P___ -1 -25.8369 154.865 TC -24.6983 153.694 7 6 139
1929055S14153 1929 20 SP EA NOT_NAMED 1929-03-01 03:00:00 NR -25.4906 154.523 main 123 123 ______P___P___ -1 -26.2509 155.081 TC -24.9000 153.908 7 4 138
1929055S14153 1929 20 SP EA NOT_NAMED 1929-03-01 06:00:00 NR -25.5963 154.639 main 137 132 ______P___P___ -1 -26.6696 155.326 TC -25.0032 154.048 7 1 115
1929055S14153 1929 20 SP EA NOT_NAMED 1929-03-01 09:00:00 NR -25.5142 154.584 main 132 81 ______P___P___ -1 -27.0925 155.599 TC -25.0609 154.144 7 8 321
1929055S14153 1929 20 SP EA NOT_NAMED 1929-03-01 11:00:00 NR -25.1000 154.200 main 81 81 ______P___O___ -1 -27.3765 155.796 TC -25.1000 154.200 7 10 320
1929055S14153 1929 20 SP EA NOT_NAMED 1929-03-01 12:00:00 NR -25.1167 154.216 main 81 81 ______P___P___ -1 -27.5190 155.899 TC -25.1167 154.216 7 1 146
1929055S14153 1929 20 SP EA NOT_NAMED 1929-03-01 15:00:00 NR -25.1568 154.244 main 83 83 ______P___P___ -1 -27.9488 156.223 TC -25.1568 154.244 7 1 150
1929055S14153 1929 20 SP EA NOT_NAMED 1929-03-01 18:00:00 NR -25.2306 154.292 main 93 93 ______P___P___ -1 -28.3814 156.571 TC -25.2306 154.292 7 3 146
1929055S14153 1929 20 SP EA NOT_NAMED 1929-03-01 21:00:00 NR -25.4013 154.428 main 110 96 ______P___P___ -1 -28.8161 156.941 TC -25.4013 154.428 7 6 143
1929055S14153 1929 20 SP EA NOT_NAMED 1929-03-01 23:00:00 NR -25.6000 154.600 bom main 137 137 ______P___O___ -1 -29.1069 157.199 TC -25.6000 154.600 7 32 139
1929055S14153 1929 20 SP EA NOT_NAMED 1929-03-02 00:00:00 TS -26.6034 155.572 main 244 218 ______P__OP___ -1 -29.2525 157.331 -30.0000 158.900 TC -25.7543 154.740 7 14 141
1929055S14153 1929 20 SP EA NOT_NAMED 1929-03-02 03:00:00 NR -26.3321 155.273 main 219 218 ______P___P___ -1 -29.6901 157.739 TC -26.3321 155.273 7 5 143
1929055S14153 1929 20 SP EA NOT_NAMED 1929-03-02 06:00:00 NR -27.0086 155.916 main 262 262 ______P___P___ -1 -30.1284 158.164 TC -27.0086 155.916 7 18 139
1929055S14153 1929 20 SP EA NOT_NAMED 1929-03-02 09:00:00 NR -27.6895 156.584 main 299 299 ______P___P___ -1 -30.5668 158.604 TC -27.6895 156.584 7 17 139
1929055S14153 1929 20 SP EA NOT_NAMED 1929-03-02 11:00:00 NR -28.1000 157.000 main 333 333 ______P___O___ -1 -30.8589 158.905 TC -28.1000 157.000 7 16 138
1929055S14153 1929 20 SP EA NOT_NAMED 1929-03-02 12:00:00 NR -28.2680 157.177 main 352 352 ______P___P___ -1 -31.0048 159.057 TC -28.2680 157.177 7 13 136
1929055S14153 1929 20 SP EA NOT_NAMED 1929-03-02 15:00:00 NR -28.7215 157.673 main 399 398 ______P___P___ -1 -31.4420 159.521 TC -28.7215 157.673 7 12 136
1929055S14153 1929 20 SP EA NOT_NAMED 1929-03-02 18:00:00 NR -29.1041 158.111 main 437 437 ______P___P___ -1 -31.8778 159.995 TC -29.1041 158.111 7 17 140
1929055S14153 1929 20 SP EA NOT_NAMED 1929-03-02 21:00:00 NR -30.0217 158.929 main 526 526 ______P___P___ -1 -32.3118 160.476 TC -29.4216 158.487 7 17 141
1929055S14153 1929 20 SP EA NOT_NAMED 1929-03-02 23:00:00 NR -30.2000 159.120 bom main 550 513 ______O___O___ -1 -32.6000 160.800 TC -29.6000 158.700 7 7 340
1929055S14153 1929 20 SP EA NOT_NAMED 1929-03-03 00:00:00 NR -29.6823 158.794 main 511 498 __________P___ -1 TC -29.6823 158.794 7 5 345
1929055S14153 1929 20 SP EA NOT_NAMED 1929-03-03 03:00:00 NR -29.8845 159.024 main 534 534 __________P___ -1 TC -29.8845 159.024 7 5 135
1929055S14153 1929 20 SP EA NOT_NAMED 1929-03-03 06:00:00 NR -30.0442 159.205 main 555 555 __________P___ -1 TC -30.0442 159.205 7 4 135
1929055S14153 1929 20 SP EA NOT_NAMED 1929-03-03 09:00:00 NR -30.1923 159.374 main 578 578 __________P___ -1 TC -30.1923 159.374 7 4 135
1929055S14153 1929 20 SP EA NOT_NAMED 1929-03-03 11:00:00 NR -30.3000 159.500 main 590 590 __________O___ -1 TC -30.3000 159.500 7 5 135
1929055S14153 1929 20 SP EA NOT_NAMED 1929-03-03 12:00:00 NR -30.3597 159.571 main 602 602 __________P___ -1 TC -30.3597 159.571 7 6 134
1929055S14153 1929 20 SP EA NOT_NAMED 1929-03-03 15:00:00 NR -30.5615 159.813 main 626 626 __________P___ -1 TC -30.5615 159.813 7 6 134
1929055S14153 1929 20 SP MM NOT_NAMED 1929-03-03 18:00:00 NR -30.7894 160.091 main 659 659 __________P___ -1 TC -30.7894 160.091 7 7 134
1929055S14153 1929 20 SP MM NOT_NAMED 1929-03-03 21:00:00 NR -31.0334 160.392 main 690 690 __________P___ -1 TC -31.0334 160.392 7 7 133
1929055S14153 1929 20 SP MM NOT_NAMED 1929-03-03 23:00:00 NR -31.2000 160.600 main 712 __________O___ -1 TC -31.2000 160.600 7 7 133

デジタル台風データ・検索

IBTrACS Databaseについて

本データベースは、米国NOAAが公開する1842年以降の世界の熱帯低気圧のベストトラックデータアーカイブInternational Best Track Archive for Climate Stewardship (IBTrACS)を、ウェブで閲覧しやすい形式に変換したものです。

最終更新日:2021-10-19